Time;durP1;ratioP1;P1;durP2;ratioP2;P2;SDS_P1;SDS_P2;PMS_P1;PMS_P2;Temp;Humidity;BMP_temperature;BMP_pressure;BME280_temperature;BME280_humidity;BME280_pressure;Samples;Min_cycle;Max_cycle;Signal;HPM_P1;HPM_P2
2022/01/04 00:00:05;;;;;;;25.20;14.63;;;;;;;-6.80;78.30;97970.88;5041621;28;20033;-57
2022/01/04 00:02:30;;;;;;;20.55;13.05;;;;;;;-6.21;77.27;98050.03;5042745;28;20021;-58
2022/01/04 00:04:56;;;;;;;26.77;14.70;;;;;;;-6.16;78.22;98045.91;5041626;28;20017;-58
2022/01/04 00:07:22;;;;;;;24.70;13.60;;;;;;;-6.35;77.72;98053.97;5040461;28;20124;-59
2022/01/04 00:09:51;;;;;;;25.60;14.20;;;;;;;-6.50;77.53;98051.97;5057971;28;20029;-59
2022/01/04 00:15:02;;;;;;;25.50;13.35;;;;;;;-6.73;77.65;98052.38;5058453;28;20041;-59
2022/01/04 00:17:29;;;;;;;24.88;14.75;;;;;;;-6.78;79.20;98062.34;5056407;28;20033;-58
2022/01/04 00:19:55;;;;;;;21.83;13.55;;;;;;;-6.65;79.13;98060.94;5056755;28;20146;-58
2022/01/04 00:22:20;;;;;;;23.15;14.15;;;;;;;-6.63;78.24;98068.50;5056793;28;20035;-59
2022/01/04 00:24:46;;;;;;;21.50;12.68;;;;;;;-6.84;78.48;98063.88;5056884;28;20456;-57
2022/01/04 00:27:11;;;;;;;21.23;12.27;;;;;;;-7.01;78.95;98066.00;5056649;28;20021;-58
2022/01/04 00:29:37;;;;;;;19.50;12.30;;;;;;;-7.34;80.04;98049.38;5056488;28;20037;-58
2022/01/04 00:32:03;;;;;;;22.98;14.07;;;;;;;-7.02;79.75;98060.16;5056583;28;20034;-58
2022/01/04 00:34:29;;;;;;;19.50;12.13;;;;;;;-7.05;79.71;98056.69;5052976;28;20029;-58
2022/01/04 00:36:54;;;;;;;15.68;10.15;;;;;;;-7.09;79.77;98068.38;5057604;28;20051;-58
2022/01/04 00:39:20;;;;;;;17.48;10.90;;;;;;;-6.92;79.36;98062.88;5058667;28;20033;-58
2022/01/04 00:41:46;;;;;;;15.52;10.25;;;;;;;-6.78;79.24;98069.06;5041285;28;20030;-58
2022/01/04 00:44:11;;;;;;;15.05;9.57;;;;;;;-6.76;78.58;98074.94;5053796;28;20310;-58
2022/01/04 00:46:37;;;;;;;13.75;9.55;;;;;;;-7.00;77.92;98075.28;5055838;28;20029;-57
2022/01/04 00:49:11;;;;;;;12.25;8.45;;;;;;;-7.09;78.09;98082.63;5056231;28;20044;-58
2022/01/04 00:51:43;;;;;;;14.55;9.25;;;;;;;-6.93;78.90;98062.00;5053530;28;20713;-58
2022/01/04 00:54:10;;;;;;;14.77;9.80;;;;;;;-6.83;78.71;98063.06;5046167;28;20060;-59
2022/01/04 00:56:36;;;;;;;13.98;9.40;;;;;;;-6.69;78.10;98083.50;5052204;28;20017;-58
2022/01/04 00:59:03;;;;;;;13.35;8.68;;;;;;;-6.77;77.52;98046.44;5042298;28;20314;-58
2022/01/04 01:01:29;;;;;;;17.45;9.88;;;;;;;-6.72;77.21;98083.44;5054810;28;20029;-57
2022/01/04 01:03:55;;;;;;;14.10;9.98;;;;;;;-6.68;77.23;98083.53;5058483;28;20318;-61
2022/01/04 01:06:22;;;;;;;13.35;9.50;;;;;;;-6.67;78.14;98086.88;5041508;28;20044;-58
2022/01/04 01:08:48;;;;;;;12.52;8.90;;;;;;;-6.74;77.16;98083.41;5041349;28;20026;-60
2022/01/04 01:11:14;;;;;;;14.90;10.15;;;;;;;-6.59;77.65;98080.34;5040281;28;20029;-59
2022/01/04 01:13:40;;;;;;;20.08;10.98;;;;;;;-6.49;78.00;98087.25;5040458;28;20087;-58
2022/01/04 01:16:06;;;;;;;16.85;10.88;;;;;;;-6.63;77.19;98094.50;5049232;28;20021;-59
2022/01/04 01:18:32;;;;;;;18.50;10.90;;;;;;;-6.71;77.61;98095.19;5049226;28;20032;-58
2022/01/04 01:20:58;;;;;;;19.70;12.40;;;;;;;-6.59;77.70;98086.22;5023877;28;20029;-58
2022/01/04 01:23:24;;;;;;;19.98;12.88;;;;;;;-6.56;78.00;98092.16;5042536;28;20033;-57
2022/01/04 01:25:51;;;;;;;20.35;11.43;;;;;;;-6.38;77.17;98095.03;5055829;28;20623;-57
2022/01/04 01:28:18;;;;;;;23.17;12.40;;;;;;;-6.36;78.22;98087.50;5058155;28;20028;-57
2022/01/04 01:30:44;;;;;;;19.73;12.35;;;;;;;-6.47;76.50;98095.72;5046730;28;20049;-58
2022/01/04 01:33:11;;;;;;;18.73;11.73;;;;;;;-6.87;78.52;98104.06;5051400;28;20033;-62
2022/01/04 01:35:37;;;;;;;21.63;13.63;;;;;;;-6.70;78.34;98101.91;5054198;28;20241;-58
2022/01/04 01:38:04;;;;;;;21.42;12.77;;;;;;;-6.74;78.35;98106.06;5043418;28;20084;-58
2022/01/04 01:40:31;;;;;;;20.75;12.38;;;;;;;-6.60;77.87;98108.84;5049777;28;20021;-58
2022/01/04 01:42:57;;;;;;;21.77;12.73;;;;;;;-6.47;77.96;98118.38;5055461;28;20028;-58
2022/01/04 01:45:23;;;;;;;21.52;12.52;;;;;;;-6.54;77.18;98106.47;5051205;28;20040;-59
2022/01/04 01:47:50;;;;;;;18.27;12.05;;;;;;;-6.46;76.76;98124.25;5041664;28;20084;-59
2022/01/04 01:50:17;;;;;;;17.73;11.32;;;;;;;-6.45;77.72;98103.28;5054094;28;20021;-59
2022/01/04 01:52:46;;;;;;;22.25;12.88;;;;;;;-6.52;77.97;98099.78;5040222;28;20018;-58
2022/01/04 01:55:13;;;;;;;21.63;12.70;;;;;;;-6.48;76.89;98095.69;5040189;28;20037;-57
2022/01/04 01:57:39;;;;;;;20.42;12.35;;;;;;;-6.52;77.44;98099.78;5041121;28;20307;-58
2022/01/04 02:00:10;;;;;;;24.40;13.35;;;;;;;-6.99;77.39;98030.03;5040275;28;20225;-57
2022/01/04 02:02:36;;;;;;;23.58;14.23;;;;;;;-6.68;77.89;98090.19;5045386;28;20037;-57
2022/01/04 02:05:02;;;;;;;21.65;13.27;;;;;;;-6.50;78.19;98090.63;5042692;28;20048;-58
2022/01/04 02:07:30;;;;;;;21.15;13.85;;;;;;;-6.40;78.28;98100.84;5053398;28;20060;-58
2022/01/04 02:10:03;;;;;;;22.77;13.88;;;;;;;-6.47;76.97;98093.19;5051841;28;20067;-58
2022/01/04 02:12:36;;;;;;;25.98;14.27;;;;;;;-6.44;77.87;98120.94;5050212;28;20027;-57
2022/01/04 02:15:04;;;;;;;24.23;14.65;;;;;;;-6.47;77.54;98105.78;5054534;28;20120;-57
2022/01/04 02:17:29;;;;;;;25.42;14.88;;;;;;;-6.44;76.78;98090.72;5046728;28;20059;-57
2022/01/04 02:19:56;;;;;;;24.30;14.68;;;;;;;-6.38;76.97;98105.09;5058868;28;20107;-57
2022/01/04 02:22:22;;;;;;;22.65;13.32;;;;;;;-6.63;77.63;98104.59;5060762;28;20025;-58
2022/01/04 02:24:48;;;;;;;24.90;14.13;;;;;;;-6.62;77.76;98096.22;5060609;28;20032;-59
2022/01/04 02:27:15;;;;;;;25.58;14.18;;;;;;;-6.74;77.91;98101.03;5056803;28;20102;-58
2022/01/04 02:29:41;;;;;;;29.75;16.73;;;;;;;-6.69;78.48;98101.94;5059077;28;20029;-60
2022/01/04 02:32:07;;;;;;;30.70;16.70;;;;;;;-6.68;77.68;98097.75;5058708;28;20043;-59
2022/01/04 02:34:32;;;;;;;30.15;17.40;;;;;;;-6.51;77.36;98115.72;5057258;28;20078;-59
2022/01/04 02:36:59;;;;;;;29.25;17.02;;;;;;;-6.59;77.37;98105.50;5052109;28;20071;-58
2022/01/04 02:39:24;;;;;;;30.52;16.98;;;;;;;-6.74;77.35;98107.69;5044428;28;20249;-58
2022/01/04 02:41:50;;;;;;;29.75;17.85;;;;;;;-6.82;77.62;98115.94;5044636;28;20018;-58
2022/01/04 02:44:16;;;;;;;33.47;16.77;;;;;;;-6.89;78.23;98119.13;5044057;28;20041;-58
2022/01/04 02:46:41;;;;;;;35.17;18.88;;;;;;;-6.92;78.76;98126.63;5059824;28;20029;-58
2022/01/04 02:49:07;;;;;;;31.92;18.50;;;;;;;-6.84;77.82;98119.22;5060685;28;20037;-58
2022/01/04 02:51:33;;;;;;;29.38;17.67;;;;;;;-6.85;77.97;98115.88;5057310;28;20032;-57
2022/01/04 02:53:58;;;;;;;30.08;16.90;;;;;;;-6.54;78.58;98123.22;5057088;28;20318;-57
2022/01/04 02:56:24;;;;;;;31.75;16.98;;;;;;;-6.64;78.32;98127.22;5056906;28;20032;-59
2022/01/04 02:58:49;;;;;;;30.48;18.55;;;;;;;-6.68;77.29;98125.44;5056897;28;20027;-58
2022/01/04 03:01:15;;;;;;;32.13;18.20;;;;;;;-6.52;77.30;98124.13;5053020;28;20396;-58
2022/01/04 03:03:40;;;;;;;31.38;16.88;;;;;;;-6.42;77.76;98121.81;5047606;28;20024;-57
2022/01/04 03:06:06;;;;;;;30.38;17.50;;;;;;;-6.22;77.36;98141.53;5055892;28;20579;-58
2022/01/04 03:08:31;;;;;;;33.30;18.33;;;;;;;-6.25;77.74;98127.19;5043335;28;20136;-57
2022/01/04 03:10:57;;;;;;;34.13;18.67;;;;;;;-6.41;76.75;98140.31;5060490;28;20109;-58
2022/01/04 03:13:22;;;;;;;32.60;17.75;;;;;;;-6.31;77.96;98136.31;5041822;28;20029;-57
2022/01/04 03:15:48;;;;;;;32.22;17.00;;;;;;;-6.39;76.12;98133.63;5043870;28;20033;-58
2022/01/04 03:18:14;;;;;;;30.90;17.25;;;;;;;-6.45;77.62;98141.91;5056356;28;20575;-57
2022/01/04 03:20:40;;;;;;;26.45;16.38;;;;;;;-6.46;78.04;98152.78;5046436;28;20029;-58
2022/01/04 03:23:09;;;;;;;29.83;17.20;;;;;;;-6.39;77.63;98147.88;5052024;28;20025;-57
2022/01/04 03:25:36;;;;;;;26.52;16.20;;;;;;;-6.85;77.35;98092.38;5051274;28;20029;-57
2022/01/04 03:28:03;;;;;;;25.77;14.82;;;;;;;-6.52;77.35;98152.66;5047599;28;20328;-58
2022/01/04 03:30:28;;;;;;;25.52;15.00;;;;;;;-6.48;76.48;98154.44;5055071;28;20032;-58
2022/01/04 03:32:54;;;;;;;25.38;15.55;;;;;;;-6.40;76.66;98149.53;5042043;28;20029;-58
2022/01/04 03:35:21;;;;;;;24.70;14.85;;;;;;;-6.54;77.16;98151.78;5058827;28;20226;-59
2022/01/04 03:37:47;;;;;;;23.42;13.27;;;;;;;-6.73;77.75;98163.09;5059838;28;20045;-58
2022/01/04 03:40:13;;;;;;;22.35;13.32;;;;;;;-6.76;77.63;98171.41;5042588;28;20025;-58
2022/01/04 03:42:38;;;;;;;23.05;13.95;;;;;;;-6.84;78.09;98150.28;5088565;28;20031;-58
2022/01/04 03:45:05;;;;;;;20.88;12.32;;;;;;;-6.76;77.85;98176.47;5056750;28;20032;-58
2022/01/04 03:47:31;;;;;;;19.63;12.93;;;;;;;-6.95;77.30;98172.69;5056553;28;20028;-57
2022/01/04 03:49:56;;;;;;;21.35;13.07;;;;;;;-6.90;77.41;98177.81;5048037;28;20078;-58
2022/01/04 03:52:22;;;;;;;27.08;13.43;;;;;;;-6.97;78.88;98174.31;5047189;28;20020;-57
2022/01/04 03:54:47;;;;;;;23.60;14.00;;;;;;;-6.71;78.65;98170.69;5057226;28;20074;-57
2022/01/04 03:57:13;;;;;;;23.05;13.60;;;;;;;-6.53;77.90;98181.16;5054839;28;20044;-58
2022/01/04 03:59:38;;;;;;;27.63;15.18;;;;;;;-6.51;78.14;98179.53;5057972;28;20051;-58
2022/01/04 04:02:04;;;;;;;27.20;15.30;;;;;;;-6.49;77.00;98182.09;5051582;28;20306;-58
2022/01/04 04:04:30;;;;;;;25.90;14.05;;;;;;;-6.58;77.43;98187.78;5043150;28;20341;-58
2022/01/04 04:06:55;;;;;;;26.30;14.23;;;;;;;-6.49;77.46;98180.41;5056575;28;20260;-57
2022/01/04 04:09:22;;;;;;;27.80;15.45;;;;;;;-6.36;77.74;98165.56;5056802;28;20079;-58
2022/01/04 04:11:47;;;;;;;26.60;14.07;;;;;;;-6.24;77.02;98165.84;5056686;28;20028;-58
2022/01/04 04:14:13;;;;;;;25.13;13.57;;;;;;;-6.37;75.93;98171.41;5048567;28;20025;-58
2022/01/04 04:16:39;;;;;;;25.20;13.48;;;;;;;-6.51;77.40;98174.50;5047415;28;20347;-58
2022/01/04 04:19:05;;;;;;;23.42;13.32;;;;;;;-6.45;77.16;98172.13;5055431;28;20055;-58
2022/01/04 04:21:31;;;;;;;23.50;13.20;;;;;;;-6.69;76.78;98184.16;5055725;28;20061;-58
2022/01/04 04:23:56;;;;;;;25.95;14.63;;;;;;;-6.39;77.65;98178.94;5058785;28;20022;-57
2022/01/04 04:26:22;;;;;;;25.38;14.95;;;;;;;-6.76;77.55;98163.03;5041146;28;20067;-57
2022/01/04 04:28:47;;;;;;;29.60;15.02;;;;;;;-6.72;77.68;98171.53;5058221;28;20345;-58
2022/01/04 04:31:13;;;;;;;30.73;16.33;;;;;;;-6.83;78.24;98187.19;5056566;28;20021;-58
2022/01/04 04:33:39;;;;;;;33.72;16.65;;;;;;;-6.67;78.67;98178.34;5047258;28;20072;-60
2022/01/04 04:36:04;;;;;;;28.48;16.80;;;;;;;-6.70;78.14;98182.47;5051102;28;20306;-58
2022/01/04 04:38:30;;;;;;;26.70;15.77;;;;;;;-6.69;78.73;98176.63;5054424;28;20159;-57
2022/01/04 04:40:55;;;;;;;30.65;17.35;;;;;;;-6.61;77.83;98172.63;5056188;28;20048;-58
2022/01/04 04:43:21;;;;;;;30.08;15.40;;;;;;;-6.61;78.48;98181.00;5052714;28;20021;-58
2022/01/04 04:45:47;;;;;;;26.15;15.00;;;;;;;-6.76;78.70;98188.19;5042239;28;20385;-57
2022/01/04 04:48:12;;;;;;;25.88;15.57;;;;;;;-6.89;78.63;98194.63;5058603;28;20025;-57
2022/01/04 04:50:38;;;;;;;29.17;14.93;;;;;;;-7.07;79.10;98187.47;5040197;28;20045;-57
2022/01/04 04:53:04;;;;;;;30.38;16.73;;;;;;;-6.84;78.93;98189.69;5042608;28;20068;-57
2022/01/04 04:55:30;;;;;;;28.77;16.67;;;;;;;-6.88;78.90;98197.97;5055195;28;20040;-58
2022/01/04 04:57:56;;;;;;;30.55;17.05;;;;;;;-6.89;79.11;98193.78;5044961;28;20036;-58
2022/01/04 05:00:22;;;;;;;31.33;17.55;;;;;;;-6.78;78.49;98193.19;5050657;28;20044;-57
2022/01/04 05:02:47;;;;;;;30.50;17.00;;;;;;;-6.57;78.77;98199.53;5051488;28;20033;-57
2022/01/04 05:05:13;;;;;;;29.92;17.75;;;;;;;-6.63;78.97;98192.69;5054210;28;20024;-58
2022/01/04 05:07:39;;;;;;;32.35;16.98;;;;;;;-6.70;79.01;98190.84;5055722;28;20057;-56
2022/01/04 05:10:06;;;;;;;34.47;18.30;;;;;;;-6.94;79.23;98184.44;5055517;28;20018;-57
2022/01/04 05:12:31;;;;;;;35.22;19.15;;;;;;;-6.70;79.09;98197.56;5056755;28;20289;-58
2022/01/04 05:14:57;;;;;;;33.53;17.83;;;;;;;-7.25;79.31;98146.78;5053112;28;20026;-58
2022/01/04 05:17:23;;;;;;;34.90;17.67;;;;;;;-6.84;79.19;98200.63;5054468;28;20029;-58
2022/01/04 05:19:48;;;;;;;37.65;18.35;;;;;;;-7.03;79.78;98203.50;5054375;28;20075;-58
2022/01/04 05:22:14;;;;;;;33.95;18.20;;;;;;;-7.11;79.56;98186.56;5043351;28;20137;-57
2022/01/04 05:24:40;;;;;;;35.55;17.13;;;;;;;-7.16;80.00;98208.22;5050562;28;20025;-58
2022/01/04 05:27:06;;;;;;;33.75;18.75;;;;;;;-6.94;79.96;98194.50;5055425;28;20036;-58
2022/01/04 05:29:31;;;;;;;31.80;17.55;;;;;;;-6.86;78.88;98201.41;5055565;28;20029;-58
2022/01/04 05:31:57;;;;;;;37.88;18.80;;;;;;;-6.80;78.75;98207.44;5053627;28;20079;-58
2022/01/04 05:34:25;;;;;;;33.85;18.20;;;;;;;-6.81;78.39;98203.19;5030833;28;20360;-58
2022/01/04 05:36:51;;;;;;;32.45;16.45;;;;;;;-7.20;79.67;98220.69;5038828;28;20037;-58
2022/01/04 05:39:16;;;;;;;32.95;17.15;;;;;;;-6.77;80.19;98225.13;5057537;28;20051;-57
2022/01/04 05:41:42;;;;;;;33.13;15.90;;;;;;;-6.77;78.56;98221.72;5056038;28;20041;-57
2022/01/04 05:44:07;;;;;;;27.77;14.55;;;;;;;-6.90;78.03;98223.09;5055394;28;20026;-57
2022/01/04 05:46:33;;;;;;;30.58;16.05;;;;;;;-6.66;78.50;98229.53;5055234;28;20029;-57
2022/01/04 05:48:59;;;;;;;28.77;15.07;;;;;;;-6.95;77.69;98207.91;5055162;28;20054;-57
2022/01/04 05:51:24;;;;;;;29.55;15.48;;;;;;;-7.25;79.07;98222.22;5051629;28;20037;-57
2022/01/04 05:53:50;;;;;;;32.67;16.15;;;;;;;-7.00;79.38;98228.72;5045778;28;20029;-57
2022/01/04 05:56:15;;;;;;;28.17;15.52;;;;;;;-6.85;78.47;98230.78;5055314;28;20267;-57
2022/01/04 05:58:41;;;;;;;29.17;16.13;;;;;;;-6.82;78.55;98229.19;5055234;28;20221;-57
2022/01/04 06:01:07;;;;;;;30.98;15.95;;;;;;;-6.61;78.03;98222.97;5057105;28;20071;-58
2022/01/04 06:03:32;;;;;;;29.75;16.33;;;;;;;-6.80;78.10;98224.19;5040228;28;20029;-58
2022/01/04 06:05:59;;;;;;;30.25;16.15;;;;;;;-6.64;77.46;98225.38;5056820;28;20051;-57
2022/01/04 06:08:31;;;;;;;34.70;16.50;;;;;;;-6.63;78.33;98229.59;5041377;28;20025;-57
2022/01/04 06:10:56;;;;;;;27.55;15.40;;;;;;;-6.56;77.94;98233.97;5049493;28;20029;-57
2022/01/04 06:16:06;;;;;;;30.27;16.55;;;;;;;-6.50;78.08;98244.19;5054483;28;20048;-58
2022/01/04 06:18:32;;;;;;;29.55;15.52;;;;;;;-6.38;77.93;98243.63;5045721;28;20032;-58
2022/01/04 06:20:58;;;;;;;29.67;16.38;;;;;;;-6.39;77.31;98244.41;5040658;28;20231;-58
2022/01/04 06:23:23;;;;;;;34.72;18.27;;;;;;;-6.46;77.53;98250.97;5039444;28;20535;-57
2022/01/04 06:25:51;;;;;;;32.63;18.15;;;;;;;-6.70;77.11;98202.59;5040446;28;20030;-57
2022/01/04 06:28:17;;;;;;;33.72;18.33;;;;;;;-6.49;77.00;98253.44;5040430;28;20045;-57
2022/01/04 06:30:42;;;;;;;33.15;19.00;;;;;;;-6.45;76.93;98240.09;5039421;28;20514;-57
2022/01/04 06:33:10;;;;;;;33.03;18.27;;;;;;;-7.06;77.55;98189.19;5052844;28;20029;-58
2022/01/04 06:35:37;;;;;;;39.80;22.33;;;;;;;-6.67;77.39;98255.53;5055127;28;20031;-58
2022/01/04 06:38:04;;;;;;;38.33;22.13;;;;;;;-6.67;78.43;98270.63;5053173;28;20041;-58
2022/01/04 06:40:30;;;;;;;42.58;23.73;;;;;;;-6.92;78.23;98266.69;5053528;28;20041;-57
2022/01/04 06:42:55;;;;;;;43.40;24.60;;;;;;;-6.70;77.84;98275.59;5054754;28;20032;-58
2022/01/04 06:45:22;;;;;;;40.75;25.05;;;;;;;-6.80;78.11;98297.16;5056315;28;20017;-58
2022/01/04 06:47:48;;;;;;;44.47;26.45;;;;;;;-6.56;77.60;98264.19;5056871;28;20309;-58
2022/01/04 06:50:15;;;;;;;41.25;26.40;;;;;;;-6.72;76.88;98287.28;5055321;28;20040;-58
2022/01/04 06:52:41;;;;;;;48.85;28.80;;;;;;;-6.50;77.25;98293.69;5042801;28;20029;-58
2022/01/04 06:55:08;;;;;;;47.75;30.05;;;;;;;-6.55;76.54;98300.28;5044027;28;20080;-58
2022/01/04 06:57:33;;;;;;;44.55;26.65;;;;;;;-6.41;76.49;98306.50;5041963;28;20029;-58
2022/01/04 06:59:59;;;;;;;43.20;27.80;;;;;;;-6.38;75.83;98303.19;5057122;28;20363;-58
2022/01/04 07:02:25;;;;;;;48.53;31.85;;;;;;;-6.52;75.73;98302.88;5057576;28;20040;-58
2022/01/04 07:04:50;;;;;;;52.05;31.08;;;;;;;-6.72;76.92;98310.78;5057365;28;20033;-58
2022/01/04 07:07:16;;;;;;;44.90;27.98;;;;;;;-6.68;77.42;98301.63;5054061;28;20037;-58
2022/01/04 07:09:42;;;;;;;48.38;28.65;;;;;;;-6.56;76.73;98306.97;5050184;28;20048;-58
2022/01/04 07:12:08;;;;;;;39.20;24.20;;;;;;;-6.68;76.77;98306.66;5052071;28;20072;-58
2022/01/04 07:14:34;;;;;;;35.20;23.17;;;;;;;-6.82;77.71;98309.69;5044666;28;20025;-57
2022/01/04 07:17:00;;;;;;;43.83;25.75;;;;;;;-6.60;77.42;98302.69;5039835;28;20025;-58
2022/01/04 07:19:25;;;;;;;44.80;27.35;;;;;;;-6.48;76.57;98314.72;5059190;28;20029;-57
2022/01/04 07:21:51;;;;;;;35.92;22.48;;;;;;;-6.51;76.47;98304.56;5042532;28;20067;-58
2022/01/04 07:24:17;;;;;;;31.98;21.80;;;;;;;-6.33;76.53;98325.13;5041426;28;20186;-57
2022/01/04 07:26:43;;;;;;;31.70;19.27;;;;;;;-6.21;76.14;98323.72;5055596;28;20052;-59
2022/01/04 07:29:09;;;;;;;29.02;18.23;;;;;;;-6.02;76.20;98330.91;5046312;28;20033;-58
2022/01/04 07:31:34;;;;;;;28.50;17.42;;;;;;;-6.19;75.05;98314.56;5052499;28;20028;-58
2022/01/04 07:34:00;;;;;;;24.27;15.18;;;;;;;-6.28;75.28;98325.28;5052252;28;20071;-59
2022/01/04 07:36:29;;;;;;;24.25;15.57;;;;;;;-6.18;75.71;98311.22;5044261;28;20902;-58
2022/01/04 07:38:55;;;;;;;28.55;15.30;;;;;;;-6.15;75.80;98319.69;5045767;28;20036;-59
2022/01/04 07:41:21;;;;;;;19.55;13.70;;;;;;;-6.54;75.80;98320.47;5056048;28;20017;-58
2022/01/04 07:43:46;;;;;;;24.27;13.77;;;;;;;-6.10;76.71;98328.22;5036702;28;20116;-58
2022/01/04 07:46:12;;;;;;;21.38;12.10;;;;;;;-6.55;75.00;98328.00;5057535;28;20040;-58
2022/01/04 07:48:38;;;;;;;18.67;13.20;;;;;;;-6.54;76.30;98325.50;5040894;28;20072;-58
2022/01/04 07:51:03;;;;;;;15.82;11.50;;;;;;;-6.16;77.09;98328.06;5054427;28;20367;-58
2022/01/04 07:53:30;;;;;;;19.25;13.00;;;;;;;-6.21;76.03;98319.56;5041186;28;20025;-57
2022/01/04 07:55:56;;;;;;;18.17;12.85;;;;;;;-6.34;76.13;98327.63;5050152;28;20028;-58
2022/01/04 07:58:22;;;;;;;16.48;11.88;;;;;;;-6.26;74.60;98331.19;5054721;28;20091;-58
2022/01/04 08:00:48;;;;;;;17.40;12.05;;;;;;;-6.19;76.07;98329.66;5049303;28;20375;-57
2022/01/04 08:03:14;;;;;;;19.00;12.02;;;;;;;-6.09;75.14;98339.13;5041042;28;20033;-58
2022/01/04 08:05:40;;;;;;;17.25;11.35;;;;;;;-6.16;74.83;98329.72;5033972;28;20037;-58
2022/01/04 08:08:05;;;;;;;18.10;11.95;;;;;;;-6.18;75.68;98319.63;5041047;28;21012;-57
2022/01/04 08:10:31;;;;;;;15.45;11.82;;;;;;;-6.20;74.29;98330.47;5039077;28;20041;-58
2022/01/04 08:12:57;;;;;;;16.10;11.18;;;;;;;-6.38;75.69;98325.84;5056386;28;20274;-58
2022/01/04 08:15:23;;;;;;;20.33;12.05;;;;;;;-6.45;76.69;98318.16;5052646;28;20265;-58
2022/01/04 08:17:49;;;;;;;18.13;12.32;;;;;;;-6.33;77.09;98319.25;5051099;28;20028;-57
2022/01/04 08:20:17;;;;;;;19.15;11.07;;;;;;;-6.68;76.13;98331.84;5052056;28;20033;-58
2022/01/04 08:22:43;;;;;;;19.77;12.82;;;;;;;-6.31;77.83;98326.03;5045500;28;20045;-58
2022/01/04 08:25:10;;;;;;;21.98;14.02;;;;;;;-6.39;76.85;98319.13;5043585;28;20253;-59
2022/01/04 08:27:36;;;;;;;25.23;14.27;;;;;;;-6.11;77.50;98323.97;5055386;28;20028;-58
2022/01/04 08:30:04;;;;;;;21.48;14.40;;;;;;;-6.10;75.81;98310.56;5054831;28;20258;-58
2022/01/04 08:32:30;;;;;;;27.15;15.00;;;;;;;-6.12;76.96;98324.78;5054712;28;20162;-59
2022/01/04 08:34:55;;;;;;;20.35;12.77;;;;;;;-5.83;75.84;98327.06;5040455;28;20698;-58
2022/01/04 08:37:21;;;;;;;20.77;13.20;;;;;;;-5.99;75.74;98330.97;5057262;28;20072;-58
2022/01/04 08:39:47;;;;;;;24.23;14.38;;;;;;;-5.85;76.39;98326.19;5040663;28;20025;-58
2022/01/04 08:42:13;;;;;;;23.38;13.65;;;;;;;-5.79;75.93;98322.97;5042691;28;20029;-58
2022/01/04 08:44:39;;;;;;;20.50;13.60;;;;;;;-5.62;74.61;98338.44;5042307;28;20048;-57
2022/01/04 08:47:10;;;;;;;20.85;12.35;;;;;;;-5.60;74.80;98327.56;5049105;28;20047;-58
2022/01/04 08:49:37;;;;;;;22.37;13.53;;;;;;;-5.82;74.41;98330.47;5056267;28;20036;-58
2022/01/04 08:52:05;;;;;;;18.23;12.27;;;;;;;-6.02;74.55;98262.03;5051581;28;20466;-58
2022/01/04 08:54:30;;;;;;;20.90;13.50;;;;;;;-5.51;74.77;98323.56;5056389;28;20025;-57
2022/01/04 08:56:56;;;;;;;20.85;12.85;;;;;;;-5.32;74.34;98322.25;5054384;28;20317;-58
2022/01/04 08:59:23;;;;;;;23.52;13.55;;;;;;;-5.35;74.90;98319.66;5040536;28;20021;-59
2022/01/04 09:01:48;;;;;;;23.95;14.18;;;;;;;-5.35;73.99;98319.66;5052802;28;20289;-58
2022/01/04 09:04:14;;;;;;;24.40;14.00;;;;;;;-5.40;74.01;98325.47;5057594;28;20033;-57
2022/01/04 09:06:40;;;;;;;21.95;13.73;;;;;;;-5.58;74.25;98313.31;5040745;28;20384;-58
2022/01/04 09:09:06;;;;;;;19.95;13.63;;;;;;;-5.59;74.75;98331.78;5052791;28;20029;-58
2022/01/04 09:11:32;;;;;;;22.48;12.90;;;;;;;-5.31;73.58;98323.94;5054670;28;20028;-59
2022/01/04 09:19:26;;;;;;;22.67;13.15;;;;;;;-5.02;72.89;98334.56;5055722;28;20020;-58
2022/01/04 09:21:53;;;;;;;23.92;14.50;;;;;;;-4.96;74.42;98349.84;5055739;28;20029;-58
2022/01/04 09:24:19;;;;;;;26.95;16.80;;;;;;;-5.10;73.25;98339.50;5055696;28;20035;-59
2022/01/04 09:26:47;;;;;;;28.63;16.60;;;;;;;-5.40;74.39;98325.47;5054274;28;20033;-57
2022/01/04 09:29:13;;;;;;;27.85;16.48;;;;;;;-5.29;72.84;98345.00;5055555;28;20036;-58
2022/01/04 09:31:39;;;;;;;30.20;17.05;;;;;;;-5.18;75.10;98346.06;5057333;28;20094;-59
2022/01/04 09:34:05;;;;;;;29.27;16.77;;;;;;;-5.28;72.98;98347.53;5045104;28;20076;-58
2022/01/04 09:36:37;;;;;;;26.70;17.48;;;;;;;-5.28;74.43;98362.69;5055375;28;20032;-58
2022/01/04 09:39:07;;;;;;;25.08;16.08;;;;;;;-5.57;73.29;98276.38;5019978;28;20026;-58
2022/01/04 09:41:33;;;;;;;26.02;15.68;;;;;;;-5.65;73.55;98343.44;5049796;28;20149;-59
2022/01/04 09:43:59;;;;;;;23.85;14.65;;;;;;;-5.63;73.72;98346.81;5045475;28;20246;-58
2022/01/04 09:46:26;;;;;;;27.70;17.10;;;;;;;-5.27;73.54;98339.16;5048420;28;20043;-59
2022/01/04 09:48:52;;;;;;;29.52;15.25;;;;;;;-5.18;74.46;98340.19;5048490;28;20033;-59
2022/01/04 09:51:18;;;;;;;27.90;15.27;;;;;;;-5.20;73.62;98340.16;5043858;28;20314;-59
2022/01/04 09:53:43;;;;;;;26.00;15.27;;;;;;;-5.15;71.96;98348.63;5041527;28;20033;-59
2022/01/04 09:56:09;;;;;;;26.00;15.15;;;;;;;-5.05;73.20;98340.41;5040069;28;20030;-59
2022/01/04 09:58:35;;;;;;;24.83;15.18;;;;;;;-4.91;73.69;98338.16;5038693;28;20203;-59
2022/01/04 10:01:01;;;;;;;26.23;14.80;;;;;;;-5.09;73.04;98333.63;5038392;28;20021;-59
2022/01/04 10:03:29;;;;;;;23.90;14.20;;;;;;;-5.24;72.55;98270.25;5039927;28;20087;-59
2022/01/04 10:06:16;;;;;;;21.60;13.38;;;;;;;-4.90;72.52;98323.88;5052147;28;20025;-59
2022/01/04 10:09:08;;;;;;;22.08;13.82;;;;;;;-4.81;71.73;98343.38;5041716;28;20033;-59
2022/01/04 10:11:42;;;;;;;23.55;12.82;;;;;;;-5.25;72.48;98350.13;5038827;28;20084;-59
2022/01/04 10:14:29;;;;;;;23.40;13.18;;;;;;;-5.51;73.15;98328.59;5054364;28;20349;-59
2022/01/04 10:17:00;;;;;;;21.77;14.20;;;;;;;-5.16;73.06;98326.75;5055004;28;20210;-60
2022/01/04 10:19:36;;;;;;;22.35;14.15;;;;;;;-5.29;72.02;98348.34;5039888;28;20041;-60
2022/01/04 10:22:31;;;;;;;21.13;14.27;;;;;;;-4.89;72.06;98350.81;5043554;28;20304;-59
2022/01/04 10:25:02;;;;;;;24.30;14.73;;;;;;;-4.99;72.02;98341.38;5057728;28;20048;-59
2022/01/04 10:27:51;;;;;;;26.35;14.93;;;;;;;-5.26;72.29;98347.56;5058467;28;20234;-59
2022/01/04 10:30:25;;;;;;;26.75;16.08;;;;;;;-5.29;71.09;98339.94;5058243;28;20094;-59
2022/01/04 10:32:54;;;;;;;25.65;15.85;;;;;;;-5.16;71.76;98336.84;5038640;28;20025;-59
2022/01/04 10:35:44;;;;;;;26.40;16.00;;;;;;;-5.05;71.20;98347.97;5063137;28;20061;-59
2022/01/04 10:38:36;;;;;;;28.35;16.80;;;;;;;-5.39;71.79;98271.69;5048229;28;20156;-58
2022/01/04 10:41:06;;;;;;;28.90;16.55;;;;;;;-4.89;72.30;98345.75;5051320;28;20032;-59
2022/01/04 10:43:44;;;;;;;23.13;15.40;;;;;;;-4.97;70.97;98345.63;5040808;28;20032;-59
2022/01/04 10:46:12;;;;;;;25.50;14.90;;;;;;;-4.86;71.72;98350.84;5046527;28;20033;-60
2022/01/04 10:48:43;;;;;;;25.30;15.27;;;;;;;-4.80;72.40;98372.84;5048325;28;20040;-61
2022/01/04 10:51:14;;;;;;;27.58;16.35;;;;;;;-4.76;72.13;98349.34;5058044;28;20240;-60
2022/01/04 10:53:41;;;;;;;28.38;14.65;;;;;;;-5.00;70.67;98353.16;5043801;28;20090;-60
2022/01/04 10:56:09;;;;;;;27.20;15.25;;;;;;;-5.72;72.33;98329.84;5048140;28;20108;-60
2022/01/04 10:58:41;;;;;;;26.17;15.85;;;;;;;-5.46;73.37;98297.56;5042832;28;20037;-60
2022/01/04 11:01:10;;;;;;;30.13;17.00;;;;;;;-4.97;72.59;98342.22;5042598;28;20036;-60
2022/01/04 11:03:39;;;;;;;29.10;15.90;;;;;;;-4.77;73.78;98343.47;5044148;28;20052;-59
2022/01/04 11:06:14;;;;;;;29.77;17.42;;;;;;;-4.66;72.57;98335.22;5057983;28;20029;-59
2022/01/04 11:08:41;;;;;;;25.38;16.42;;;;;;;-4.62;70.44;98345.38;5056504;28;20025;-59
2022/01/04 11:11:07;;;;;;;29.95;17.05;;;;;;;-4.58;70.60;98352.19;5039983;28;20044;-59
2022/01/04 11:13:33;;;;;;;29.30;16.95;;;;;;;-4.63;71.56;98342.84;5047707;28;20249;-60
2022/01/04 11:16:01;;;;;;;27.38;15.38;;;;;;;-4.59;71.04;98353.03;5050765;28;20044;-59
2022/01/04 11:18:27;;;;;;;27.08;16.83;;;;;;;-4.62;71.48;98358.00;5050917;28;20257;-60
2022/01/04 11:20:54;;;;;;;26.60;16.35;;;;;;;-4.52;71.75;98351.44;5036513;28;20027;-59
2022/01/04 11:23:28;;;;;;;33.35;17.80;;;;;;;-5.22;70.26;98279.53;5057618;28;20066;-60
2022/01/04 11:25:55;;;;;;;30.35;17.63;;;;;;;-4.71;71.35;98363.75;5057823;28;20029;-61